sensor_id;sensor_type;location;lat;lon;timestamp;P1;durP1;ratioP1;P2;durP2;ratioP2
1593;SDS011;790;47.000;16.084;2023-11-18T00:05:32;2.13;;;1.87;;
1593;SDS011;790;47.000;16.084;2023-11-18T00:11:54;1.07;;;1.03;;
1593;SDS011;790;47.000;16.084;2023-11-18T00:18:17;1.30;;;1.20;;
1593;SDS011;790;47.000;16.084;2023-11-18T00:24:42;1.20;;;1.20;;
1593;SDS011;790;47.000;16.084;2023-11-18T00:31:03;1.10;;;1.00;;
1593;SDS011;790;47.000;16.084;2023-11-18T00:37:26;1.10;;;1.10;;
1593;SDS011;790;47.000;16.084;2023-11-18T00:48:45;5.90;;;4.20;;
1593;SDS011;790;47.000;16.084;2023-11-18T00:55:07;3.23;;;2.37;;
1593;SDS011;790;47.000;16.084;2023-11-18T01:01:40;1.77;;;1.67;;
1593;SDS011;790;47.000;16.084;2023-11-18T01:08:17;1.23;;;1.00;;
1593;SDS011;790;47.000;16.084;2023-11-18T01:14:39;0.90;;;0.90;;
1593;SDS011;790;47.000;16.084;2023-11-18T01:21:01;1.60;;;1.03;;
1593;SDS011;790;47.000;16.084;2023-11-18T01:27:25;1.47;;;1.37;;
1593;SDS011;790;47.000;16.084;2023-11-18T01:33:48;1.30;;;1.30;;
1593;SDS011;790;47.000;16.084;2023-11-18T01:40:10;1.10;;;1.10;;
1593;SDS011;790;47.000;16.084;2023-11-18T01:51:10;1.40;;;1.30;;
1593;SDS011;790;47.000;16.084;2023-11-18T01:57:32;1.10;;;1.10;;
1593;SDS011;790;47.000;16.084;2023-11-18T02:03:56;0.97;;;0.87;;
1593;SDS011;790;47.000;16.084;2023-11-18T02:10:21;1.20;;;1.10;;
1593;SDS011;790;47.000;16.084;2023-11-18T02:16:44;1.00;;;1.00;;
1593;SDS011;790;47.000;16.084;2023-11-18T02:23:09;1.47;;;1.47;;
1593;SDS011;790;47.000;16.084;2023-11-18T02:29:34;1.17;;;1.17;;
1593;SDS011;790;47.000;16.084;2023-11-18T02:36:00;1.20;;;1.10;;
1593;SDS011;790;47.000;16.084;2023-11-18T02:42:28;1.00;;;1.00;;
1593;SDS011;790;47.000;16.084;2023-11-18T02:53:38;0.90;;;0.90;;
1593;SDS011;790;47.000;16.084;2023-11-18T03:00:06;1.00;;;1.00;;
1593;SDS011;790;47.000;16.084;2023-11-18T03:06:36;1.00;;;1.00;;
1593;SDS011;790;47.000;16.084;2023-11-18T03:13:02;0.80;;;0.80;;
1593;SDS011;790;47.000;16.084;2023-11-18T03:19:23;0.80;;;0.80;;
1593;SDS011;790;47.000;16.084;2023-11-18T03:25:45;0.90;;;0.90;;
1593;SDS011;790;47.000;16.084;2023-11-18T03:32:09;1.10;;;1.00;;
1593;SDS011;790;47.000;16.084;2023-11-18T03:38:31;0.87;;;0.87;;
1593;SDS011;790;47.000;16.084;2023-11-18T03:45:14;1.03;;;1.03;;
1593;SDS011;790;47.000;16.084;2023-11-18T03:56:17;1.30;;;1.17;;
1593;SDS011;790;47.000;16.084;2023-11-18T04:02:39;0.80;;;0.80;;
1593;SDS011;790;47.000;16.084;2023-11-18T04:09:03;1.43;;;1.07;;
1593;SDS011;790;47.000;16.084;2023-11-18T04:15:27;1.10;;;1.00;;
1593;SDS011;790;47.000;16.084;2023-11-18T04:21:50;1.00;;;1.00;;
1593;SDS011;790;47.000;16.084;2023-11-18T04:28:12;0.87;;;0.87;;
1593;SDS011;790;47.000;16.084;2023-11-18T04:34:36;0.90;;;0.90;;
1593;SDS011;790;47.000;16.084;2023-11-18T04:40:59;1.00;;;1.00;;
1593;SDS011;790;47.000;16.084;2023-11-18T04:47:23;1.17;;;1.00;;
1593;SDS011;790;47.000;16.084;2023-11-18T04:58:32;0.80;;;0.80;;
1593;SDS011;790;47.000;16.084;2023-11-18T05:04:54;1.83;;;1.73;;
1593;SDS011;790;47.000;16.084;2023-11-18T05:11:17;37.70;;;17.47;;
1593;SDS011;790;47.000;16.084;2023-11-18T05:17:42;69.57;;;31.60;;
1593;SDS011;790;47.000;16.084;2023-11-18T05:24:05;13.00;;;7.43;;
1593;SDS011;790;47.000;16.084;2023-11-18T05:30:27;1.50;;;1.40;;
1593;SDS011;790;47.000;16.084;2023-11-18T05:36:52;1.20;;;1.07;;
1593;SDS011;790;47.000;16.084;2023-11-18T05:43:14;1.50;;;1.40;;
1593;SDS011;790;47.000;16.084;2023-11-18T05:49:39;1.70;;;1.43;;
1593;SDS011;790;47.000;16.084;2023-11-18T06:00:37;1.83;;;1.73;;
1593;SDS011;790;47.000;16.084;2023-11-18T06:06:59;1.10;;;1.10;;
1593;SDS011;790;47.000;16.084;2023-11-18T06:13:22;1.40;;;1.40;;
1593;SDS011;790;47.000;16.084;2023-11-18T06:19:56;1.00;;;1.00;;
1593;SDS011;790;47.000;16.084;2023-11-18T06:26:18;2.90;;;2.80;;
1593;SDS011;790;47.000;16.084;2023-11-18T06:32:40;1.80;;;1.70;;
1593;SDS011;790;47.000;16.084;2023-11-18T06:39:04;2.57;;;2.47;;
1593;SDS011;790;47.000;16.084;2023-11-18T06:45:26;2.30;;;2.20;;
1593;SDS011;790;47.000;16.084;2023-11-18T06:51:51;2.97;;;2.37;;
1593;SDS011;790;47.000;16.084;2023-11-18T07:02:59;2.90;;;2.70;;
1593;SDS011;790;47.000;16.084;2023-11-18T07:09:22;2.50;;;2.30;;
1593;SDS011;790;47.000;16.084;2023-11-18T07:15:46;3.70;;;3.50;;
1593;SDS011;790;47.000;16.084;2023-11-18T07:22:11;3.30;;;3.10;;
1593;SDS011;790;47.000;16.084;2023-11-18T07:28:34;6.17;;;5.67;;
1593;SDS011;790;47.000;16.084;2023-11-18T07:34:56;3.37;;;3.07;;
1593;SDS011;790;47.000;16.084;2023-11-18T07:41:20;4.53;;;4.13;;
1593;SDS011;790;47.000;16.084;2023-11-18T07:47:44;15.43;;;13.80;;
1593;SDS011;790;47.000;16.084;2023-11-18T07:54:07;15.47;;;10.50;;
1593;SDS011;790;47.000;16.084;2023-11-18T08:05:18;7.70;;;6.43;;
1593;SDS011;790;47.000;16.084;2023-11-18T08:11:42;8.93;;;7.73;;
1593;SDS011;790;47.000;16.084;2023-11-18T08:18:07;8.10;;;7.30;;
1593;SDS011;790;47.000;16.084;2023-11-18T08:24:33;8.23;;;5.33;;
1593;SDS011;790;47.000;16.084;2023-11-18T08:30:56;3.97;;;3.00;;
1593;SDS011;790;47.000;16.084;2023-11-18T08:37:20;2.80;;;2.70;;
1593;SDS011;790;47.000;16.084;2023-11-18T08:43:45;1.60;;;1.50;;
1593;SDS011;790;47.000;16.084;2023-11-18T08:50:08;3.10;;;1.60;;
1593;SDS011;790;47.000;16.084;2023-11-18T08:56:31;3.10;;;2.90;;
1593;SDS011;790;47.000;16.084;2023-11-18T09:07:50;1.40;;;1.30;;
1593;SDS011;790;47.000;16.084;2023-11-18T09:14:13;11.83;;;11.03;;
1593;SDS011;790;47.000;16.084;2023-11-18T09:20:35;6.37;;;6.03;;
1593;SDS011;790;47.000;16.084;2023-11-18T09:27:01;4.47;;;4.13;;
1593;SDS011;790;47.000;16.084;2023-11-18T09:33:24;1.40;;;1.30;;
1593;SDS011;790;47.000;16.084;2023-11-18T09:39:48;2.00;;;1.90;;
1593;SDS011;790;47.000;16.084;2023-11-18T09:46:14;2.47;;;2.37;;
1593;SDS011;790;47.000;16.084;2023-11-18T09:52:40;1.40;;;1.30;;
1593;SDS011;790;47.000;16.084;2023-11-18T09:59:12;3.83;;;2.07;;
1593;SDS011;790;47.000;16.084;2023-11-18T10:10:36;1.70;;;1.60;;
1593;SDS011;790;47.000;16.084;2023-11-18T10:17:05;1.20;;;1.20;;
1593;SDS011;790;47.000;16.084;2023-11-18T10:23:28;3.63;;;3.33;;
1593;SDS011;790;47.000;16.084;2023-11-18T10:29:58;1.50;;;1.50;;
1593;SDS011;790;47.000;16.084;2023-11-18T10:36:31;2.00;;;1.90;;
1593;SDS011;790;47.000;16.084;2023-11-18T10:42:55;14.20;;;10.53;;
1593;SDS011;790;47.000;16.084;2023-11-18T10:49:21;2.33;;;1.90;;
1593;SDS011;790;47.000;16.084;2023-11-18T10:55:43;1.37;;;1.37;;
1593;SDS011;790;47.000;16.084;2023-11-18T11:02:27;1.60;;;1.50;;
1593;SDS011;790;47.000;16.084;2023-11-18T11:13:34;1.70;;;1.60;;
1593;SDS011;790;47.000;16.084;2023-11-18T11:19:59;1.57;;;1.50;;
1593;SDS011;790;47.000;16.084;2023-11-18T11:26:40;1.10;;;1.10;;
1593;SDS011;790;47.000;16.084;2023-11-18T11:33:22;1.40;;;1.30;;
1593;SDS011;790;47.000;16.084;2023-11-18T11:39:58;0.70;;;0.70;;
1593;SDS011;790;47.000;16.084;2023-11-18T11:46:24;0.80;;;0.80;;
1593;SDS011;790;47.000;16.084;2023-11-18T11:52:56;0.70;;;0.70;;
1593;SDS011;790;47.000;16.084;2023-11-18T11:59:36;0.70;;;0.70;;
1593;SDS011;790;47.000;16.084;2023-11-18T12:06:19;0.87;;;0.80;;
1593;SDS011;790;47.000;16.084;2023-11-18T12:12:45;2.60;;;0.77;;
1593;SDS011;790;47.000;16.084;2023-11-18T12:25:56;0.77;;;0.73;;
1593;SDS011;790;47.000;16.084;2023-11-18T12:39:26;0.40;;;0.40;;
1593;SDS011;790;47.000;16.084;2023-11-18T12:53:10;1.00;;;0.90;;
1593;SDS011;790;47.000;16.084;2023-11-18T12:59:36;0.60;;;0.60;;
1593;SDS011;790;47.000;16.084;2023-11-18T13:06:00;0.80;;;0.80;;
1593;SDS011;790;47.000;16.084;2023-11-18T13:12:25;0.90;;;0.70;;
1593;SDS011;790;47.000;16.084;2023-11-18T13:18:50;1.07;;;1.00;;
1593;SDS011;790;47.000;16.084;2023-11-18T13:25:14;2.60;;;2.23;;
1593;SDS011;790;47.000;16.084;2023-11-18T13:31:37;1.97;;;1.50;;
1593;SDS011;790;47.000;16.084;2023-11-18T13:38:02;1.63;;;1.30;;
1593;SDS011;790;47.000;16.084;2023-11-18T13:44:32;4.23;;;3.47;;
1593;SDS011;790;47.000;16.084;2023-11-18T13:50:55;2.73;;;2.23;;
1593;SDS011;790;47.000;16.084;2023-11-18T13:57:21;2.50;;;2.30;;
1593;SDS011;790;47.000;16.084;2023-11-18T14:03:44;2.60;;;2.00;;
1593;SDS011;790;47.000;16.084;2023-11-18T14:14:34;1.40;;;1.40;;
1593;SDS011;790;47.000;16.084;2023-11-18T14:20:56;1.40;;;1.30;;
1593;SDS011;790;47.000;16.084;2023-11-18T14:27:19;3.30;;;3.10;;
1593;SDS011;790;47.000;16.084;2023-11-18T14:33:43;2.10;;;1.17;;
1593;SDS011;790;47.000;16.084;2023-11-18T14:40:06;1.20;;;1.07;;
1593;SDS011;790;47.000;16.084;2023-11-18T14:46:32;1.23;;;1.20;;
1593;SDS011;790;47.000;16.084;2023-11-18T14:52:56;1.30;;;1.30;;
1593;SDS011;790;47.000;16.084;2023-11-18T14:59:20;1.47;;;1.40;;
1593;SDS011;790;47.000;16.084;2023-11-18T15:05:43;1.73;;;1.67;;
1593;SDS011;790;47.000;16.084;2023-11-18T15:16:42;3.47;;;3.10;;
1593;SDS011;790;47.000;16.084;2023-11-18T15:23:06;22.33;;;15.50;;
1593;SDS011;790;47.000;16.084;2023-11-18T15:29:30;55.17;;;36.33;;
1593;SDS011;790;47.000;16.084;2023-11-18T15:35:59;123.27;;;83.17;;
1593;SDS011;790;47.000;16.084;2023-11-18T15:42:43;47.77;;;33.83;;
1593;SDS011;790;47.000;16.084;2023-11-18T15:49:08;36.03;;;25.57;;
1593;SDS011;790;47.000;16.084;2023-11-18T15:55:33;28.27;;;19.30;;
1593;SDS011;790;47.000;16.084;2023-11-18T16:02:16;13.87;;;9.07;;
1593;SDS011;790;47.000;16.084;2023-11-18T16:08:39;13.43;;;10.03;;
1593;SDS011;790;47.000;16.084;2023-11-18T16:19:36;8.23;;;6.53;;
1593;SDS011;790;47.000;16.084;2023-11-18T16:25:59;3.90;;;3.53;;
1593;SDS011;790;47.000;16.084;2023-11-18T16:32:22;2.00;;;1.90;;
1593;SDS011;790;47.000;16.084;2023-11-18T16:38:47;2.10;;;2.00;;
1593;SDS011;790;47.000;16.084;2023-11-18T16:45:10;2.67;;;1.73;;
1593;SDS011;790;47.000;16.084;2023-11-18T16:51:33;1.60;;;1.50;;
1593;SDS011;790;47.000;16.084;2023-11-18T16:57:58;3.80;;;3.50;;
1593;SDS011;790;47.000;16.084;2023-11-18T17:04:22;4.10;;;3.27;;
1593;SDS011;790;47.000;16.084;2023-11-18T17:10:45;4.40;;;3.90;;
1593;SDS011;790;47.000;16.084;2023-11-18T17:21:59;12.97;;;8.53;;
1593;SDS011;790;47.000;16.084;2023-11-18T17:28:23;7.30;;;6.00;;
1593;SDS011;790;47.000;16.084;2023-11-18T17:34:46;5.10;;;4.60;;
1593;SDS011;790;47.000;16.084;2023-11-18T17:41:09;4.87;;;4.47;;
1593;SDS011;790;47.000;16.084;2023-11-18T17:47:34;3.60;;;3.33;;
1593;SDS011;790;47.000;16.084;2023-11-18T17:53:57;7.37;;;6.00;;
1593;SDS011;790;47.000;16.084;2023-11-18T18:00:22;7.23;;;6.50;;
1593;SDS011;790;47.000;16.084;2023-11-18T18:06:46;10.83;;;8.77;;
1593;SDS011;790;47.000;16.084;2023-11-18T18:13:10;5.00;;;4.50;;
1593;SDS011;790;47.000;16.084;2023-11-18T18:24:29;5.93;;;4.60;;
1593;SDS011;790;47.000;16.084;2023-11-18T18:30:53;2.30;;;2.20;;
1593;SDS011;790;47.000;16.084;2023-11-18T18:37:16;3.00;;;2.70;;
1593;SDS011;790;47.000;16.084;2023-11-18T18:43:42;12.03;;;8.37;;
1593;SDS011;790;47.000;16.084;2023-11-18T18:50:06;12.77;;;8.93;;
1593;SDS011;790;47.000;16.084;2023-11-18T18:56:29;7.20;;;6.00;;
1593;SDS011;790;47.000;16.084;2023-11-18T19:02:53;5.00;;;4.50;;
1593;SDS011;790;47.000;16.084;2023-11-18T19:09:16;3.40;;;3.20;;
1593;SDS011;790;47.000;16.084;2023-11-18T19:15:39;3.20;;;2.90;;
1593;SDS011;790;47.000;16.084;2023-11-18T19:26:58;5.13;;;4.60;;
1593;SDS011;790;47.000;16.084;2023-11-18T19:33:21;2.60;;;2.40;;
1593;SDS011;790;47.000;16.084;2023-11-18T19:39:44;1.90;;;1.80;;
1593;SDS011;790;47.000;16.084;2023-11-18T19:46:07;2.13;;;2.03;;
1593;SDS011;790;47.000;16.084;2023-11-18T19:52:30;2.10;;;2.00;;
1593;SDS011;790;47.000;16.084;2023-11-18T19:58:53;2.20;;;2.10;;
1593;SDS011;790;47.000;16.084;2023-11-18T20:05:17;2.53;;;2.20;;
1593;SDS011;790;47.000;16.084;2023-11-18T20:11:47;2.20;;;2.10;;
1593;SDS011;790;47.000;16.084;2023-11-18T20:18:11;2.13;;;2.03;;
1593;SDS011;790;47.000;16.084;2023-11-18T20:29:30;2.10;;;2.00;;
1593;SDS011;790;47.000;16.084;2023-11-18T20:35:54;2.50;;;2.30;;
1593;SDS011;790;47.000;16.084;2023-11-18T20:42:19;2.97;;;2.40;;
1593;SDS011;790;47.000;16.084;2023-11-18T20:48:46;2.63;;;2.43;;
1593;SDS011;790;47.000;16.084;2023-11-18T20:55:09;2.50;;;2.30;;
1593;SDS011;790;47.000;16.084;2023-11-18T21:01:33;3.97;;;3.03;;
1593;SDS011;790;47.000;16.084;2023-11-18T21:07:58;3.63;;;3.33;;
1593;SDS011;790;47.000;16.084;2023-11-18T21:14:21;3.93;;;3.03;;
1593;SDS011;790;47.000;16.084;2023-11-18T21:20:44;4.10;;;3.70;;
1593;SDS011;790;47.000;16.084;2023-11-18T21:31:43;9.47;;;4.70;;
1593;SDS011;790;47.000;16.084;2023-11-18T21:38:05;3.90;;;3.60;;
1593;SDS011;790;47.000;16.084;2023-11-18T21:44:28;3.33;;;3.13;;
1593;SDS011;790;47.000;16.084;2023-11-18T21:50:52;3.70;;;3.40;;
1593;SDS011;790;47.000;16.084;2023-11-18T21:57:14;4.30;;;3.97;;
1593;SDS011;790;47.000;16.084;2023-11-18T22:03:58;2.97;;;2.77;;
1593;SDS011;790;47.000;16.084;2023-11-18T22:10:32;3.57;;;3.27;;
1593;SDS011;790;47.000;16.084;2023-11-18T22:16:55;2.87;;;2.67;;
1593;SDS011;790;47.000;16.084;2023-11-18T22:23:27;3.77;;;2.70;;
1593;SDS011;790;47.000;16.084;2023-11-18T22:34:44;4.63;;;4.13;;
1593;SDS011;790;47.000;16.084;2023-11-18T22:41:08;3.87;;;3.47;;
1593;SDS011;790;47.000;16.084;2023-11-18T22:47:32;3.60;;;3.33;;
1593;SDS011;790;47.000;16.084;2023-11-18T22:53:56;3.47;;;3.10;;
1593;SDS011;790;47.000;16.084;2023-11-18T23:00:19;4.23;;;3.87;;
1593;SDS011;790;47.000;16.084;2023-11-18T23:06:55;5.37;;;4.20;;
1593;SDS011;790;47.000;16.084;2023-11-18T23:13:19;5.03;;;4.10;;
1593;SDS011;790;47.000;16.084;2023-11-18T23:19:43;4.40;;;4.00;;
1593;SDS011;790;47.000;16.084;2023-11-18T23:26:05;4.93;;;4.53;;
1593;SDS011;790;47.000;16.084;2023-11-18T23:37:23;4.83;;;3.90;;
1593;SDS011;790;47.000;16.084;2023-11-18T23:43:46;5.43;;;4.33;;
1593;SDS011;790;47.000;16.084;2023-11-18T23:50:11;3.67;;;3.37;;
1593;SDS011;790;47.000;16.084;2023-11-18T23:56:35;4.00;;;3.60;;
